sensor_id;sensor_type;location;lat;lon;timestamp;pressure;altitude;pressure_sealevel;temperature;humidity
78675;BME280;67990;59.826;30.108;2023-05-16T00:01:34;101825.94;;;11.72;63.56
78675;BME280;67990;59.826;30.108;2023-05-16T00:04:02;101821.53;;;11.73;63.56
78675;BME280;67990;59.826;30.108;2023-05-16T00:06:30;101832.44;;;11.79;63.28
78675;BME280;67990;59.826;30.108;2023-05-16T00:09:16;101823.25;;;11.85;62.66
78675;BME280;67990;59.826;30.108;2023-05-16T00:11:43;101812.09;;;11.70;63.02
78675;BME280;67990;59.826;30.108;2023-05-16T00:14:31;101816.88;;;11.76;62.46
78675;BME280;67990;59.826;30.108;2023-05-16T00:17:00;101815.91;;;11.77;62.67
78675;BME280;67990;59.826;30.108;2023-05-16T00:19:29;101808.38;;;11.73;62.46
78675;BME280;67990;59.826;30.108;2023-05-16T00:22:15;101816.16;;;11.74;62.46
78675;BME280;67990;59.826;30.108;2023-05-16T00:24:42;101810.16;;;11.72;62.37
78675;BME280;67990;59.826;30.108;2023-05-16T00:27:09;101811.34;;;11.68;62.46
78675;BME280;67990;59.826;30.108;2023-05-16T00:29:37;101813.97;;;11.68;62.20
78675;BME280;67990;59.826;30.108;2023-05-16T00:32:05;101810.63;;;11.66;62.23
78675;BME280;67990;59.826;30.108;2023-05-16T00:34:51;101811.50;;;11.54;62.31
78675;BME280;67990;59.826;30.108;2023-05-16T00:40:22;101797.97;;;11.48;62.53
78675;BME280;67990;59.826;30.108;2023-05-16T00:43:08;101799.41;;;11.28;63.25
78675;BME280;67990;59.826;30.108;2023-05-16T00:45:53;101795.31;;;11.13;63.64
78675;BME280;67990;59.826;30.108;2023-05-16T00:48:22;101795.59;;;11.21;63.62
78675;BME280;67990;59.826;30.108;2023-05-16T00:50:50;101794.53;;;11.23;63.21
78675;BME280;67990;59.826;30.108;2023-05-16T00:53:18;101782.66;;;11.18;63.27
78675;BME280;67990;59.826;30.108;2023-05-16T00:55:46;101788.13;;;11.15;63.37
78675;BME280;67990;59.826;30.108;2023-05-16T00:58:14;101785.16;;;11.19;63.29
78675;BME280;67990;59.826;30.108;2023-05-16T01:00:42;101793.28;;;11.16;63.17
78675;BME280;67990;59.826;30.108;2023-05-16T01:03:11;101790.25;;;11.10;63.22
78675;BME280;67990;59.826;30.108;2023-05-16T01:05:39;101795.03;;;11.05;63.43
78675;BME280;67990;59.826;30.108;2023-05-16T01:08:42;101796.47;;;11.09;63.32
78675;BME280;67990;59.826;30.108;2023-05-16T01:11:30;101793.66;;;10.99;63.40
78675;BME280;67990;59.826;30.108;2023-05-16T01:14:07;101792.00;;;10.98;63.44
78675;BME280;67990;59.826;30.108;2023-05-16T01:16:41;101798.44;;;10.94;63.44
78675;BME280;67990;59.826;30.108;2023-05-16T01:19:31;101789.69;;;10.94;63.40
78675;BME280;67990;59.826;30.108;2023-05-16T01:22:28;101786.47;;;10.78;63.98
78675;BME280;67990;59.826;30.108;2023-05-16T01:25:10;101789.56;;;10.72;64.11
78675;BME280;67990;59.826;30.108;2023-05-16T01:28:01;101788.09;;;10.68;64.32
78675;BME280;67990;59.826;30.108;2023-05-16T01:30:32;101774.81;;;10.46;65.16
78675;BME280;67990;59.826;30.108;2023-05-16T01:33:00;101778.16;;;10.60;64.86
78675;BME280;67990;59.826;30.108;2023-05-16T01:35:28;101776.78;;;10.55;64.92
78675;BME280;67990;59.826;30.108;2023-05-16T01:37:58;101768.91;;;10.55;64.72
78675;BME280;67990;59.826;30.108;2023-05-16T01:40:52;101770.22;;;10.73;64.26
78675;BME280;67990;59.826;30.108;2023-05-16T01:43:42;101759.00;;;10.94;63.58
78675;BME280;67990;59.826;30.108;2023-05-16T01:46:32;101762.97;;;11.00;63.26
78675;BME280;67990;59.826;30.108;2023-05-16T01:49:06;101758.25;;;10.92;63.38
78675;BME280;67990;59.826;30.108;2023-05-16T01:52:31;101762.91;;;11.12;62.43
78675;BME280;67990;59.826;30.108;2023-05-16T01:55:01;101759.09;;;10.93;62.83
78675;BME280;67990;59.826;30.108;2023-05-16T01:57:29;101758.63;;;10.99;63.14
78675;BME280;67990;59.826;30.108;2023-05-16T01:59:58;101762.50;;;10.82;63.68
78675;BME280;67990;59.826;30.108;2023-05-16T02:02:25;101763.34;;;10.83;63.64
78675;BME280;67990;59.826;30.108;2023-05-16T02:05:09;101767.69;;;10.95;63.07
78675;BME280;67990;59.826;30.108;2023-05-16T02:07:37;101759.38;;;11.01;63.23
78675;BME280;67990;59.826;30.108;2023-05-16T02:10:05;101761.41;;;11.32;62.11
78675;BME280;67990;59.826;30.108;2023-05-16T02:12:35;101766.66;;;11.56;61.13
78675;BME280;67990;59.826;30.108;2023-05-16T02:17:49;101769.84;;;11.83;60.01
78675;BME280;67990;59.826;30.108;2023-05-16T02:20:34;101757.16;;;11.88;59.72
78675;BME280;67990;59.826;30.108;2023-05-16T02:23:19;101763.91;;;12.03;59.71
78675;BME280;67990;59.826;30.108;2023-05-16T02:28:31;101755.13;;;11.80;59.86
78675;BME280;67990;59.826;30.108;2023-05-16T02:31:00;101750.63;;;12.15;59.37
78675;BME280;67990;59.826;30.108;2023-05-16T02:33:27;101741.75;;;12.38;58.38
78675;BME280;67990;59.826;30.108;2023-05-16T02:36:12;101747.94;;;12.59;57.64
78675;BME280;67990;59.826;30.108;2023-05-16T02:41:45;101741.63;;;12.93;56.71
78675;BME280;67990;59.826;30.108;2023-05-16T02:44:14;101735.50;;;13.35;55.89
78675;BME280;67990;59.826;30.108;2023-05-16T02:47:01;101732.63;;;13.59;55.10
78675;BME280;67990;59.826;30.108;2023-05-16T02:49:28;101734.91;;;13.93;53.90
78675;BME280;67990;59.826;30.108;2023-05-16T02:51:55;101738.16;;;14.06;53.33
78675;BME280;67990;59.826;30.108;2023-05-16T02:54:22;101738.97;;;14.27;52.52
78675;BME280;67990;59.826;30.108;2023-05-16T02:56:50;101730.00;;;14.39;52.32
78675;BME280;67990;59.826;30.108;2023-05-16T02:59:18;101732.41;;;14.61;51.87
78675;BME280;67990;59.826;30.108;2023-05-16T03:01:45;101732.88;;;14.95;50.81
78675;BME280;67990;59.826;30.108;2023-05-16T03:04:13;101728.44;;;15.24;50.25
78675;BME280;67990;59.826;30.108;2023-05-16T03:06:41;101722.59;;;15.58;49.91
78675;BME280;67990;59.826;30.108;2023-05-16T03:09:08;101731.50;;;16.03;49.09
78675;BME280;67990;59.826;30.108;2023-05-16T03:11:53;101718.94;;;16.69;47.01
78675;BME280;67990;59.826;30.108;2023-05-16T03:14:21;101721.66;;;16.60;46.61
78675;BME280;67990;59.826;30.108;2023-05-16T03:16:50;101718.41;;;16.66;46.39
78675;BME280;67990;59.826;30.108;2023-05-16T03:22:23;101714.63;;;16.41;47.70
78675;BME280;67990;59.826;30.108;2023-05-16T03:24:50;101722.25;;;15.80;48.64
78675;BME280;67990;59.826;30.108;2023-05-16T03:27:17;101715.09;;;15.90;49.13
78675;BME280;67990;59.826;30.108;2023-05-16T03:29:44;101713.25;;;15.45;49.88
78675;BME280;67990;59.826;30.108;2023-05-16T03:32:11;101711.78;;;15.79;49.33
78675;BME280;67990;59.826;30.108;2023-05-16T03:34:58;101708.84;;;15.82;49.62
78675;BME280;67990;59.826;30.108;2023-05-16T03:37:44;101703.69;;;15.80;49.67
78675;BME280;67990;59.826;30.108;2023-05-16T03:40:11;101700.81;;;15.64;49.76
78675;BME280;67990;59.826;30.108;2023-05-16T03:42:38;101696.63;;;15.71;49.07
78675;BME280;67990;59.826;30.108;2023-05-16T03:45:07;101699.13;;;15.73;49.05
78675;BME280;67990;59.826;30.108;2023-05-16T03:47:34;101693.34;;;15.87;48.93
78675;BME280;67990;59.826;30.108;2023-05-16T03:50:04;101691.19;;;16.99;46.93
78675;BME280;67990;59.826;30.108;2023-05-16T03:52:32;101690.53;;;18.58;43.68
78675;BME280;67990;59.826;30.108;2023-05-16T03:57:44;101675.47;;;21.46;36.62
78675;BME280;67990;59.826;30.108;2023-05-16T04:00:13;101680.19;;;22.60;34.53
78675;BME280;67990;59.826;30.108;2023-05-16T04:02:40;101684.97;;;22.64;32.47
78675;BME280;67990;59.826;30.108;2023-05-16T04:05:26;101682.91;;;23.23;31.96
78675;BME280;67990;59.826;30.108;2023-05-16T04:08:12;101675.69;;;23.78;31.57
78675;BME280;67990;59.826;30.108;2023-05-16T04:10:39;101669.94;;;23.81;31.66
78675;BME280;67990;59.826;30.108;2023-05-16T04:13:06;101677.69;;;23.42;31.43
78675;BME280;67990;59.826;30.108;2023-05-16T04:15:34;101673.97;;;23.98;31.16
78675;BME280;67990;59.826;30.108;2023-05-16T04:18:01;101674.72;;;23.10;31.32
78675;BME280;67990;59.826;30.108;2023-05-16T04:20:30;101675.44;;;22.62;31.92
78675;BME280;67990;59.826;30.108;2023-05-16T04:26:01;101669.91;;;21.84;33.56
78675;BME280;67990;59.826;30.108;2023-05-16T04:28:29;101666.81;;;21.58;33.18
78675;BME280;67990;59.826;30.108;2023-05-16T04:30:56;101668.72;;;21.50;34.07
78675;BME280;67990;59.826;30.108;2023-05-16T04:33:41;101671.84;;;21.90;33.08
78675;BME280;67990;59.826;30.108;2023-05-16T04:36:27;101671.38;;;22.16;32.69
78675;BME280;67990;59.826;30.108;2023-05-16T04:38:56;101666.53;;;22.55;32.34
78675;BME280;67990;59.826;30.108;2023-05-16T04:41:40;101671.59;;;22.50;32.05
78675;BME280;67990;59.826;30.108;2023-05-16T04:44:26;101675.69;;;22.31;32.34
78675;BME280;67990;59.826;30.108;2023-05-16T04:46:53;101666.00;;;22.16;33.40
78675;BME280;67990;59.826;30.108;2023-05-16T04:52:07;101659.47;;;21.89;33.00
78675;BME280;67990;59.826;30.108;2023-05-16T04:54:34;101657.28;;;22.07;32.86
78675;BME280;67990;59.826;30.108;2023-05-16T05:00:06;101668.75;;;23.14;30.33
78675;BME280;67990;59.826;30.108;2023-05-16T05:02:35;101656.38;;;24.36;29.69
78675;BME280;67990;59.826;30.108;2023-05-16T05:05:03;101654.84;;;24.14;28.76
78675;BME280;67990;59.826;30.108;2023-05-16T05:07:32;101654.91;;;23.32;30.35
78675;BME280;67990;59.826;30.108;2023-05-16T05:09:59;101659.09;;;23.41;30.44
78675;BME280;67990;59.826;30.108;2023-05-16T05:12:26;101652.59;;;24.18;30.05
78675;BME280;67990;59.826;30.108;2023-05-16T05:15:11;101656.38;;;25.35;27.91
78675;BME280;67990;59.826;30.108;2023-05-16T05:17:57;101659.34;;;26.61;26.08
78675;BME280;67990;59.826;30.108;2023-05-16T05:20:25;101647.69;;;26.30;25.28
78675;BME280;67990;59.826;30.108;2023-05-16T05:23:13;101644.06;;;25.85;26.11
78675;BME280;67990;59.826;30.108;2023-05-16T05:25:59;101634.88;;;26.56;25.99
78675;BME280;67990;59.826;30.108;2023-05-16T05:31:48;101633.97;;;26.38;26.06
78675;BME280;67990;59.826;30.108;2023-05-16T05:34:15;101635.75;;;26.00;26.73
78675;BME280;67990;59.826;30.108;2023-05-16T05:36:42;101635.66;;;25.62;27.75
78675;BME280;67990;59.826;30.108;2023-05-16T05:39:11;101640.22;;;24.96;28.00
78675;BME280;67990;59.826;30.108;2023-05-16T05:41:38;101632.97;;;25.03;28.55
78675;BME280;67990;59.826;30.108;2023-05-16T05:44:42;101638.34;;;25.03;28.04
78675;BME280;67990;59.826;30.108;2023-05-16T05:47:26;101629.78;;;25.84;26.62
78675;BME280;67990;59.826;30.108;2023-05-16T05:49:53;101627.56;;;26.70;26.53
78675;BME280;67990;59.826;30.108;2023-05-16T05:55:08;101610.81;;;29.71;22.85
78675;BME280;67990;59.826;30.108;2023-05-16T05:57:54;101624.63;;;31.10;21.27
78675;BME280;67990;59.826;30.108;2023-05-16T06:00:21;101614.50;;;30.72;19.88
78675;BME280;67990;59.826;30.108;2023-05-16T06:02:49;101608.75;;;31.02;20.27
78675;BME280;67990;59.826;30.108;2023-05-16T06:05:16;101615.03;;;31.19;19.86
78675;BME280;67990;59.826;30.108;2023-05-16T06:07:43;101619.88;;;30.84;20.35
78675;BME280;67990;59.826;30.108;2023-05-16T06:10:12;101612.16;;;30.92;20.39
78675;BME280;67990;59.826;30.108;2023-05-16T06:12:39;101607.53;;;30.65;20.23
78675;BME280;67990;59.826;30.108;2023-05-16T06:15:07;101604.16;;;31.19;19.80
78675;BME280;67990;59.826;30.108;2023-05-16T06:17:34;101594.81;;;30.21;21.16
78675;BME280;67990;59.826;30.108;2023-05-16T06:20:01;101597.00;;;30.52;21.42
78675;BME280;67990;59.826;30.108;2023-05-16T06:22:48;101599.25;;;30.27;19.77
78675;BME280;67990;59.826;30.108;2023-05-16T06:25:16;101593.81;;;29.87;19.73
78675;BME280;67990;59.826;30.108;2023-05-16T06:28:01;101591.25;;;30.76;19.61
78675;BME280;67990;59.826;30.108;2023-05-16T06:30:28;101591.84;;;31.28;19.39
78675;BME280;67990;59.826;30.108;2023-05-16T06:32:55;101590.69;;;31.45;18.80
78675;BME280;67990;59.826;30.108;2023-05-16T06:35:22;101589.59;;;30.75;19.52
78675;BME280;67990;59.826;30.108;2023-05-16T06:38:08;101593.41;;;30.63;18.90
78675;BME280;67990;59.826;30.108;2023-05-16T06:41:14;101569.75;;;30.02;19.74
78675;BME280;67990;59.826;30.108;2023-05-16T06:43:41;101584.28;;;30.24;19.34
78675;BME280;67990;59.826;30.108;2023-05-16T06:46:08;101594.44;;;30.17;19.26
78675;BME280;67990;59.826;30.108;2023-05-16T06:48:35;101582.59;;;29.95;19.52
78675;BME280;67990;59.826;30.108;2023-05-16T06:51:02;101577.09;;;30.46;19.43
78675;BME280;67990;59.826;30.108;2023-05-16T06:53:29;101580.28;;;31.21;18.48
78675;BME280;67990;59.826;30.108;2023-05-16T06:55:56;101580.81;;;29.61;19.12
78675;BME280;67990;59.826;30.108;2023-05-16T06:58:25;101573.25;;;29.74;19.56
78675;BME280;67990;59.826;30.108;2023-05-16T07:00:52;101577.69;;;30.48;18.96
78675;BME280;67990;59.826;30.108;2023-05-16T07:03:19;101566.16;;;31.19;18.29
78675;BME280;67990;59.826;30.108;2023-05-16T07:06:05;101559.81;;;30.07;18.96
78675;BME280;67990;59.826;30.108;2023-05-16T07:08:32;101565.97;;;29.52;19.30
78675;BME280;67990;59.826;30.108;2023-05-16T07:11:00;101553.75;;;29.26;19.77
78675;BME280;67990;59.826;30.108;2023-05-16T07:13:29;101553.97;;;29.25;20.08
78675;BME280;67990;59.826;30.108;2023-05-16T07:15:56;101574.84;;;28.72;20.35
78675;BME280;67990;59.826;30.108;2023-05-16T07:18:23;101562.34;;;29.12;20.08
78675;BME280;67990;59.826;30.108;2023-05-16T07:20:50;101536.34;;;29.85;19.89
78675;BME280;67990;59.826;30.108;2023-05-16T07:23:17;101546.91;;;29.47;19.50
78675;BME280;67990;59.826;30.108;2023-05-16T07:25:45;101552.69;;;29.16;19.50
78675;BME280;67990;59.826;30.108;2023-05-16T07:28:12;101561.06;;;27.31;22.26
78675;BME280;67990;59.826;30.108;2023-05-16T07:30:57;101549.88;;;26.60;22.69
78675;BME280;67990;59.826;30.108;2023-05-16T07:33:25;101555.56;;;26.95;22.18
78675;BME280;67990;59.826;30.108;2023-05-16T07:36:10;101549.53;;;26.75;21.78
78675;BME280;67990;59.826;30.108;2023-05-16T07:38:38;101551.09;;;26.64;22.61
78675;BME280;67990;59.826;30.108;2023-05-16T07:41:05;101548.31;;;26.71;22.48
78675;BME280;67990;59.826;30.108;2023-05-16T07:43:32;101550.75;;;26.79;22.79
78675;BME280;67990;59.826;30.108;2023-05-16T07:46:21;101547.72;;;27.36;22.07
78675;BME280;67990;59.826;30.108;2023-05-16T07:49:06;101551.69;;;26.91;22.22
78675;BME280;67990;59.826;30.108;2023-05-16T07:51:52;101541.72;;;27.52;21.89
78675;BME280;67990;59.826;30.108;2023-05-16T07:54:19;101543.69;;;27.63;21.30
78675;BME280;67990;59.826;30.108;2023-05-16T07:56:49;101542.94;;;27.13;22.71
78675;BME280;67990;59.826;30.108;2023-05-16T07:59:34;101544.09;;;26.50;22.79
78675;BME280;67990;59.826;30.108;2023-05-16T08:02:03;101543.59;;;25.98;23.68
78675;BME280;67990;59.826;30.108;2023-05-16T08:04:30;101541.66;;;26.42;23.61
78675;BME280;67990;59.826;30.108;2023-05-16T08:06:58;101547.72;;;26.69;23.36
78675;BME280;67990;59.826;30.108;2023-05-16T08:12:10;101537.03;;;26.25;24.49
78675;BME280;67990;59.826;30.108;2023-05-16T08:14:37;101537.03;;;26.25;24.63
78675;BME280;67990;59.826;30.108;2023-05-16T08:17:06;101533.66;;;25.85;24.79
78675;BME280;67990;59.826;30.108;2023-05-16T08:19:33;101527.25;;;25.09;25.85
78675;BME280;67990;59.826;30.108;2023-05-16T08:22:01;101525.81;;;24.81;27.00
78675;BME280;67990;59.826;30.108;2023-05-16T08:24:28;101538.00;;;24.90;26.15
78675;BME280;67990;59.826;30.108;2023-05-16T08:26:55;101524.16;;;24.99;26.11
78675;BME280;67990;59.826;30.108;2023-05-16T08:29:41;101523.56;;;24.84;26.00
78675;BME280;67990;59.826;30.108;2023-05-16T08:34:55;101524.69;;;25.47;25.71
78675;BME280;67990;59.826;30.108;2023-05-16T08:37:23;101536.91;;;26.07;25.91
78675;BME280;67990;59.826;30.108;2023-05-16T08:40:09;101516.47;;;26.24;24.36
78675;BME280;67990;59.826;30.108;2023-05-16T08:42:37;101513.56;;;26.56;23.98
78675;BME280;67990;59.826;30.108;2023-05-16T08:45:06;101507.75;;;26.84;23.77
78675;BME280;67990;59.826;30.108;2023-05-16T08:47:54;101509.13;;;26.37;24.20
78675;BME280;67990;59.826;30.108;2023-05-16T08:50:40;101502.06;;;26.43;25.00
78675;BME280;67990;59.826;30.108;2023-05-16T08:53:21;101497.38;;;27.05;23.66
78675;BME280;67990;59.826;30.108;2023-05-16T08:55:49;101490.91;;;26.33;24.17
78675;BME280;67990;59.826;30.108;2023-05-16T08:58:18;101507.94;;;25.96;24.74
78675;BME280;67990;59.826;30.108;2023-05-16T09:00:46;101500.00;;;25.63;24.93
78675;BME280;67990;59.826;30.108;2023-05-16T09:03:15;101512.34;;;25.83;24.45
78675;BME280;67990;59.826;30.108;2023-05-16T09:06:04;101500.41;;;26.42;23.67
78675;BME280;67990;59.826;30.108;2023-05-16T09:08:50;101507.63;;;26.17;23.70
78675;BME280;67990;59.826;30.108;2023-05-16T09:11:17;101507.44;;;26.12;23.88
78675;BME280;67990;59.826;30.108;2023-05-16T09:14:02;101500.34;;;26.17;23.74
78675;BME280;67990;59.826;30.108;2023-05-16T09:16:30;101495.22;;;26.09;24.19
78675;BME280;67990;59.826;30.108;2023-05-16T09:19:00;101487.31;;;26.21;24.30
78675;BME280;67990;59.826;30.108;2023-05-16T09:21:30;101483.44;;;26.66;23.59
78675;BME280;67990;59.826;30.108;2023-05-16T09:24:02;101463.25;;;26.75;23.35
78675;BME280;67990;59.826;30.108;2023-05-16T09:26:29;101478.09;;;27.26;23.44
78675;BME280;67990;59.826;30.108;2023-05-16T09:29:16;101484.25;;;27.09;22.83
78675;BME280;67990;59.826;30.108;2023-05-16T09:34:55;101476.53;;;26.94;23.35
78675;BME280;67990;59.826;30.108;2023-05-16T09:37:23;101476.81;;;27.04;23.29
78675;BME280;67990;59.826;30.108;2023-05-16T09:39:52;101480.44;;;26.98;22.89
78675;BME280;67990;59.826;30.108;2023-05-16T09:42:20;101479.28;;;26.39;23.35
78675;BME280;67990;59.826;30.108;2023-05-16T09:45:07;101474.81;;;25.44;24.31
78675;BME280;67990;59.826;30.108;2023-05-16T09:47:37;101467.84;;;25.17;25.02
78675;BME280;67990;59.826;30.108;2023-05-16T09:50:13;101463.56;;;24.84;25.20
78675;BME280;67990;59.826;30.108;2023-05-16T09:58:33;101462.06;;;25.07;24.29
78675;BME280;67990;59.826;30.108;2023-05-16T10:01:19;101469.59;;;24.66;24.47
78675;BME280;67990;59.826;30.108;2023-05-16T10:04:05;101476.19;;;24.64;24.76
78675;BME280;67990;59.826;30.108;2023-05-16T10:06:53;101459.03;;;24.52;25.47
78675;BME280;67990;59.826;30.108;2023-05-16T10:09:21;101459.22;;;24.50;24.71
78675;BME280;67990;59.826;30.108;2023-05-16T10:11:50;101468.72;;;24.27;24.79
78675;BME280;67990;59.826;30.108;2023-05-16T10:14:18;101466.88;;;24.27;24.95
78675;BME280;67990;59.826;30.108;2023-05-16T10:17:05;101456.53;;;24.24;24.93
78675;BME280;67990;59.826;30.108;2023-05-16T10:19:35;101463.78;;;24.37;24.53
78675;BME280;67990;59.826;30.108;2023-05-16T10:22:05;101458.19;;;24.25;25.13
78675;BME280;67990;59.826;30.108;2023-05-16T10:24:38;101464.78;;;24.29;24.97
78675;BME280;67990;59.826;30.108;2023-05-16T10:27:09;101462.94;;;24.17;24.97
78675;BME280;67990;59.826;30.108;2023-05-16T10:29:55;101451.81;;;24.33;24.95
78675;BME280;67990;59.826;30.108;2023-05-16T10:32:23;101454.06;;;24.36;24.96
78675;BME280;67990;59.826;30.108;2023-05-16T10:35:26;101455.28;;;24.40;24.37
78675;BME280;67990;59.826;30.108;2023-05-16T10:37:55;101456.31;;;24.52;24.25
78675;BME280;67990;59.826;30.108;2023-05-16T10:40:23;101450.16;;;24.51;24.46
78675;BME280;67990;59.826;30.108;2023-05-16T10:43:09;101449.31;;;24.44;25.53
78675;BME280;67990;59.826;30.108;2023-05-16T10:45:39;101436.91;;;24.56;25.46
78675;BME280;67990;59.826;30.108;2023-05-16T10:48:42;101447.47;;;24.45;25.18
78675;BME280;67990;59.826;30.108;2023-05-16T10:55:06;101439.81;;;24.61;23.93
78675;BME280;67990;59.826;30.108;2023-05-16T11:00:21;101434.84;;;24.19;24.56
78675;BME280;67990;59.826;30.108;2023-05-16T11:02:48;101451.56;;;24.15;24.31
78675;BME280;67990;59.826;30.108;2023-05-16T11:05:17;101440.41;;;24.11;24.77
78675;BME280;67990;59.826;30.108;2023-05-16T11:11:39;101441.59;;;23.89;25.36
78675;BME280;67990;59.826;30.108;2023-05-16T11:14:07;101432.06;;;23.80;25.65
78675;BME280;67990;59.826;30.108;2023-05-16T11:16:58;101438.91;;;23.89;25.60
78675;BME280;67990;59.826;30.108;2023-05-16T11:19:45;101433.66;;;23.62;25.46
78675;BME280;67990;59.826;30.108;2023-05-16T11:22:32;101434.09;;;23.65;25.93
78675;BME280;67990;59.826;30.108;2023-05-16T11:25:01;101442.16;;;23.72;25.08
78675;BME280;67990;59.826;30.108;2023-05-16T11:27:32;101428.34;;;23.21;25.90
78675;BME280;67990;59.826;30.108;2023-05-16T11:30:10;101432.94;;;23.27;25.83
78675;BME280;67990;59.826;30.108;2023-05-16T11:32:39;101420.50;;;23.20;26.33
78675;BME280;67990;59.826;30.108;2023-05-16T11:38:12;101426.84;;;23.59;26.19
78675;BME280;67990;59.826;30.108;2023-05-16T11:40:42;101416.94;;;23.53;25.99
78675;BME280;67990;59.826;30.108;2023-05-16T11:43:17;101424.84;;;23.21;26.29
78675;BME280;67990;59.826;30.108;2023-05-16T11:45:44;101420.22;;;23.08;26.35
78675;BME280;67990;59.826;30.108;2023-05-16T11:48:12;101421.22;;;23.01;26.53
78675;BME280;67990;59.826;30.108;2023-05-16T11:50:56;101423.94;;;22.73;27.12
78675;BME280;67990;59.826;30.108;2023-05-16T11:53:42;101408.44;;;22.69;27.29
78675;BME280;67990;59.826;30.108;2023-05-16T11:56:26;101414.16;;;22.66;27.81
78675;BME280;67990;59.826;30.108;2023-05-16T11:58:55;101412.91;;;22.62;27.81
78675;BME280;67990;59.826;30.108;2023-05-16T12:01:24;101412.81;;;22.49;28.48
78675;BME280;67990;59.826;30.108;2023-05-16T12:03:55;101409.59;;;22.32;28.61
78675;BME280;67990;59.826;30.108;2023-05-16T12:06:41;101412.00;;;22.27;28.97
78675;BME280;67990;59.826;30.108;2023-05-16T12:09:10;101408.31;;;22.28;28.96
78675;BME280;67990;59.826;30.108;2023-05-16T12:11:57;101402.53;;;22.04;29.08
78675;BME280;67990;59.826;30.108;2023-05-16T12:14:25;101404.09;;;22.19;28.53
78675;BME280;67990;59.826;30.108;2023-05-16T12:16:53;101401.28;;;22.27;28.71
78675;BME280;67990;59.826;30.108;2023-05-16T12:19:20;101397.19;;;22.31;28.68
78675;BME280;67990;59.826;30.108;2023-05-16T12:21:51;101396.81;;;22.34;28.96
78675;BME280;67990;59.826;30.108;2023-05-16T12:24:39;101394.13;;;22.55;28.74
78675;BME280;67990;59.826;30.108;2023-05-16T12:27:07;101385.94;;;22.63;28.07
78675;BME280;67990;59.826;30.108;2023-05-16T12:29:35;101388.69;;;22.76;28.44
78675;BME280;67990;59.826;30.108;2023-05-16T12:32:20;101384.03;;;22.91;28.17
78675;BME280;67990;59.826;30.108;2023-05-16T12:35:06;101379.53;;;22.64;28.53
78675;BME280;67990;59.826;30.108;2023-05-16T12:37:33;101379.72;;;22.63;28.17
78675;BME280;67990;59.826;30.108;2023-05-16T12:40:00;101372.16;;;22.66;28.40
78675;BME280;67990;59.826;30.108;2023-05-16T12:43:04;101379.00;;;22.75;28.57
78675;BME280;67990;59.826;30.108;2023-05-16T12:45:53;101375.09;;;22.78;28.23
78675;BME280;67990;59.826;30.108;2023-05-16T12:48:22;101370.34;;;22.73;28.26
78675;BME280;67990;59.826;30.108;2023-05-16T12:50:50;101370.75;;;22.77;28.45
78675;BME280;67990;59.826;30.108;2023-05-16T12:53:18;101364.16;;;22.73;28.35
78675;BME280;67990;59.826;30.108;2023-05-16T12:55:45;101363.66;;;22.63;28.45
78675;BME280;67990;59.826;30.108;2023-05-16T12:58:12;101361.19;;;22.61;28.66
78675;BME280;67990;59.826;30.108;2023-05-16T13:03:47;101361.66;;;22.71;27.90
78675;BME280;67990;59.826;30.108;2023-05-16T13:09:16;101367.19;;;22.63;28.47
78675;BME280;67990;59.826;30.108;2023-05-16T13:11:43;101366.75;;;22.60;28.44
78675;BME280;67990;59.826;30.108;2023-05-16T13:14:29;101362.88;;;22.41;28.46
78675;BME280;67990;59.826;30.108;2023-05-16T13:16:57;101367.09;;;22.50;29.38
78675;BME280;67990;59.826;30.108;2023-05-16T13:19:25;101369.34;;;22.47;28.91
78675;BME280;67990;59.826;30.108;2023-05-16T13:22:11;101366.56;;;22.61;28.28
78675;BME280;67990;59.826;30.108;2023-05-16T13:24:38;101375.16;;;22.57;28.78
78675;BME280;67990;59.826;30.108;2023-05-16T13:29:51;101379.75;;;22.14;28.82
78675;BME280;67990;59.826;30.108;2023-05-16T13:37:51;101377.19;;;21.64;31.05
78675;BME280;67990;59.826;30.108;2023-05-16T13:43:04;101386.81;;;21.08;36.40
78675;BME280;67990;59.826;30.108;2023-05-16T13:45:31;101390.16;;;21.10;37.36
78675;BME280;67990;59.826;30.108;2023-05-16T13:48:35;101401.84;;;20.95;38.77
78675;BME280;67990;59.826;30.108;2023-05-16T13:51:04;101399.25;;;20.87;39.85
78675;BME280;67990;59.826;30.108;2023-05-16T13:53:31;101400.34;;;20.78;40.53
78675;BME280;67990;59.826;30.108;2023-05-16T13:55:58;101396.97;;;20.84;40.59
78675;BME280;67990;59.826;30.108;2023-05-16T13:58:25;101395.75;;;20.72;41.80
78675;BME280;67990;59.826;30.108;2023-05-16T14:00:52;101397.84;;;20.62;42.43
78675;BME280;67990;59.826;30.108;2023-05-16T14:03:19;101395.16;;;20.47;42.88
78675;BME280;67990;59.826;30.108;2023-05-16T14:05:47;101376.28;;;20.34;43.28
78675;BME280;67990;59.826;30.108;2023-05-16T14:08:16;101376.00;;;20.29;44.04
78675;BME280;67990;59.826;30.108;2023-05-16T14:10:43;101370.84;;;20.28;44.52
78675;BME280;67990;59.826;30.108;2023-05-16T14:13:46;101375.19;;;20.43;45.63
78675;BME280;67990;59.826;30.108;2023-05-16T14:16:14;101381.34;;;20.44;44.66
78675;BME280;67990;59.826;30.108;2023-05-16T14:18:41;101382.00;;;20.31;45.64
78675;BME280;67990;59.826;30.108;2023-05-16T14:21:08;101384.94;;;20.36;45.64
78675;BME280;67990;59.826;30.108;2023-05-16T14:23:36;101390.81;;;20.32;45.12
78675;BME280;67990;59.826;30.108;2023-05-16T14:26:21;101381.31;;;20.15;45.67
78675;BME280;67990;59.826;30.108;2023-05-16T14:28:50;101385.63;;;20.16;45.83
78675;BME280;67990;59.826;30.108;2023-05-16T14:31:17;101378.50;;;20.08;45.92